Time;durP1;ratioP1;P1;durP2;ratioP2;P2;SDS_P1;SDS_P2;PMS_P1;PMS_P2;Temp;Humidity;BMP_temperature;BMP_pressure;BME280_temperature;BME280_humidity;BME280_pressure;Samples;Min_cycle;Max_cycle;Signal;HPM_P1;HPM_P2
2022/12/05 00:01:15;;;;;;;;;;;;;;;4.58;100.00;101588.34;4935151;29;20105;-91
2022/12/05 00:03:41;;;;;;;;;;;;;;;4.53;100.00;101589.59;4935258;29;19918;-90
2022/12/05 00:06:06;;;;;;;;;;;;;;;4.38;100.00;101580.91;4951189;28;20017;-91
2022/12/05 00:08:32;;;;;;;;;;;;;;;4.41;100.00;101578.06;4950681;28;19914;-92
2022/12/05 00:10:57;;;;;;;;;;;;;;;4.44;100.00;101581.31;4951107;29;19910;-90
2022/12/05 00:13:22;;;;;;;;;;;;;;;4.44;100.00;101564.63;4951022;28;19918;-91
2022/12/05 00:15:47;;;;;;;;;;;;;;;4.44;100.00;101567.25;4950671;28;19914;-91
2022/12/05 00:18:12;;;;;;;;;;;;;;;4.43;100.00;101562.94;4950923;28;20295;-91
2022/12/05 00:20:43;;;;;;;;;;;;;;;4.41;100.00;101564.84;4950605;29;19937;-91
2022/12/05 00:23:08;;;;;;;;;;;;;;;4.44;100.00;101564.63;4935161;29;20394;-91
2022/12/05 00:25:34;;;;;;;;;;;;;;;4.48;100.00;101570.56;4934626;29;19914;-92
2022/12/05 00:28:00;;;;;;;;;;;;;;;4.40;100.00;101563.13;4950572;29;19957;-91
2022/12/05 00:30:25;;;;;;;;;;;;;;;4.40;100.00;101558.72;4950846;28;20448;-92
2022/12/05 00:32:50;;;;;;;;;;;;;;;4.43;100.00;101558.50;4950954;29;19926;-92
2022/12/05 00:35:16;;;;;;;;;;;;;;;4.46;100.00;101561.88;4951121;29;19914;-91
2022/12/05 00:37:41;;;;;;;;;;;;;;;4.39;100.00;101556.16;4950787;28;19921;-91
2022/12/05 00:40:06;;;;;;;;;;;;;;;4.40;100.00;101552.53;4951263;29;19966;-90
2022/12/05 00:42:32;;;;;;;;;;;;;;;4.34;100.00;101547.69;4949975;28;19914;-90
2022/12/05 00:44:57;;;;;;;;;;;;;;;4.37;100.00;101550.13;4953002;28;19925;-92
2022/12/05 00:47:22;;;;;;;;;;;;;;;4.35;100.00;101549.38;4954535;29;19910;-91
2022/12/05 00:49:47;;;;;;;;;;;;;;;4.34;100.00;101550.34;4954552;28;19961;-92
2022/12/05 00:52:13;;;;;;;;;;;;;;;4.34;100.00;101545.03;4955391;28;19925;-91
2022/12/05 00:54:38;;;;;;;;;;;;;;;4.38;100.00;101547.38;4954844;29;20260;-92
2022/12/05 00:57:03;;;;;;;;;;;;;;;4.37;100.00;101544.81;4954137;28;19910;-92
2022/12/05 00:59:28;;;;;;;;;;;;;;;4.37;100.00;101544.81;4954500;28;19956;-91
2022/12/05 01:01:54;;;;;;;;;;;;;;;4.34;100.00;101537.13;4954588;28;19921;-92
2022/12/05 01:04:20;;;;;;;;;;;;;;;4.35;100.00;101549.38;4954119;28;20499;-92
2022/12/05 01:06:46;;;;;;;;;;;;;;;4.34;100.00;101535.31;4954320;28;19924;-90
2022/12/05 01:09:12;;;;;;;;;;;;;;;4.36;100.00;101545.78;4954051;28;19914;-91
2022/12/05 01:11:38;;;;;;;;;;;;;;;4.38;100.00;101546.53;4953997;28;19953;-91
2022/12/05 01:14:03;;;;;;;;;;;;;;;4.38;100.00;101536.81;4954121;28;20004;-92
2022/12/05 01:16:30;;;;;;;;;;;;;;;4.35;100.00;101536.16;4953889;28;19914;-93
2022/12/05 01:18:56;;;;;;;;;;;;;;;4.30;100.00;101540.91;4954461;28;19925;-91
2022/12/05 01:21:21;;;;;;;;;;;;;;;4.34;100.00;101530.03;4953760;28;19927;-91
2022/12/05 01:23:47;;;;;;;;;;;;;;;4.38;100.00;101534.16;4953888;28;19915;-92
2022/12/05 01:26:13;;;;;;;;;;;;;;;4.33;100.00;101523.06;4953311;28;19921;-91
2022/12/05 01:28:39;;;;;;;;;;;;;;;4.28;100.00;101532.22;4954041;28;19920;-92
2022/12/05 01:31:06;;;;;;;;;;;;;;;4.23;100.00;101522.78;4953529;28;19914;-91
2022/12/05 01:33:31;;;;;;;;;;;;;;;4.30;100.00;101523.22;4953993;29;19914;-90
2022/12/05 01:35:56;;;;;;;;;;;;;;;4.26;100.00;101523.53;4953626;28;19925;-91
2022/12/05 01:38:21;;;;;;;;;;;;;;;4.28;100.00;101525.13;4953411;29;20383;-92
2022/12/05 01:40:47;;;;;;;;;;;;;;;4.29;100.00;101518.06;4953305;28;19915;-91
2022/12/05 01:43:16;;;;;;;;;;;;;;;4.28;100.00;101521.66;4953692;28;19969;-93
2022/12/05 01:45:43;;;;;;;;;;;;;;;4.30;100.00;101520.59;4937343;28;19917;-91
2022/12/05 01:48:11;;;;;;;;;;;;;;;4.26;100.00;101518.25;4937361;29;19921;-93
2022/12/05 01:50:37;;;;;;;;;;;;;;;4.31;100.00;101517.03;4953030;29;19953;-92
2022/12/05 01:53:02;;;;;;;;;;;;;;;4.30;100.00;101517.13;4953250;29;19926;-92
2022/12/05 01:55:28;;;;;;;;;;;;;;;4.27;100.00;101520.81;4952855;28;19914;-91
2022/12/05 01:57:55;;;;;;;;;;;;;;;4.22;100.00;101513.19;4953454;28;20475;-92
2022/12/05 02:00:20;;;;;;;;;;;;;;;4.22;100.00;101510.53;4953286;29;19921;-91
2022/12/05 02:02:57;;;;;;;;;;;;;;;4.27;100.00;101512.03;4953387;29;19918;-92
2022/12/05 02:05:25;;;;;;;;;;;;;;;4.19;100.00;101505.47;4952816;29;20429;-91
2022/12/05 02:07:51;;;;;;;;;;;;;;;4.27;100.00;101509.41;4953467;29;20114;-90
2022/12/05 02:10:17;;;;;;;;;;;;;;;4.22;100.00;101497.31;4937537;28;20113;-91
2022/12/05 02:12:43;;;;;;;;;;;;;;;4.14;100.00;101491.69;4953202;29;19918;-91
2022/12/05 02:15:20;;;;;;;;;;;;;;;4.17;100.00;101494.16;4953740;28;19921;-92
2022/12/05 02:18:04;;;;;;;;;;;;;;;4.20;100.00;101495.75;4937400;29;20013;-91
2022/12/05 02:20:41;;;;;;;;;;;;;;;4.18;100.00;101485.25;4941157;29;19914;-92
2022/12/05 02:23:06;;;;;;;;;;;;;;;4.17;100.00;101485.38;4931039;29;20042;-92
2022/12/05 02:25:34;;;;;;;;;;;;;;;4.19;100.00;101486.97;4936697;29;19993;-91
2022/12/05 02:28:11;;;;;;;;;;;;;;;4.22;100.00;101486.75;4944897;29;20295;-92
2022/12/05 02:30:57;;;;;;;;;;;;;;;4.16;100.00;101484.50;4952916;29;19925;-91
2022/12/05 02:33:29;;;;;;;;;;;;;;;4.10;100.00;101486.75;4953576;29;19925;-92
2022/12/05 02:36:02;;;;;;;;;;;;;;;4.13;100.00;101487.38;4952765;28;20287;-92
2022/12/05 02:38:36;;;;;;;;;;;;;;;4.13;100.00;101490.00;4952941;28;20706;-92
2022/12/05 02:41:06;;;;;;;;;;;;;;;4.18;100.00;101487.06;4952235;28;19915;-91
2022/12/05 02:43:36;;;;;;;;;;;;;;;4.16;100.00;101478.38;4953301;28;20008;-91
2022/12/05 02:46:05;;;;;;;;;;;;;;;4.15;100.00;101482.84;4952941;28;19914;-93
2022/12/05 02:48:32;;;;;;;;;;;;;;;4.13;100.00;101471.50;4952464;28;19910;-91
2022/12/05 02:50:59;;;;;;;;;;;;;;;4.12;100.00;101479.53;4949979;29;20398;-91
2022/12/05 02:53:25;;;;;;;;;;;;;;;4.16;100.00;101476.59;4952696;28;19926;-93
2022/12/05 02:55:51;;;;;;;;;;;;;;;4.18;100.00;101477.31;4951869;28;19934;-91
2022/12/05 02:58:20;;;;;;;;;;;;;;;4.13;100.00;101460.94;4952434;28;19917;-92
2022/12/05 03:00:48;;;;;;;;;;;;;;;4.16;100.00;101465.16;4951676;28;20461;-91
2022/12/05 03:03:15;;;;;;;;;;;;;;;4.16;100.00;101470.47;4952597;29;19921;-92
2022/12/05 03:05:46;;;;;;;;;;;;;;;4.09;100.00;101459.44;4951851;29;19914;-90
2022/12/05 03:08:14;;;;;;;;;;;;;;;4.12;100.00;101461.91;4935511;29;19914;-92
2022/12/05 03:10:40;;;;;;;;;;;;;;;4.11;100.00;101468.13;4951733;29;19916;-92
2022/12/05 03:13:10;;;;;;;;;;;;;;;4.14;100.00;101461.78;4952444;29;19918;-91
2022/12/05 03:15:38;;;;;;;;;;;;;;;4.17;100.00;101456.31;4951367;29;19926;-90
2022/12/05 03:18:15;;;;;;;;;;;;;;;4.18;100.00;101452.69;4952060;29;19961;-92
2022/12/05 03:20:45;;;;;;;;;;;;;;;4.16;100.00;101442.22;4951835;29;19914;-91
2022/12/05 03:23:14;;;;;;;;;;;;;;;4.14;100.00;101457.34;4936663;29;20282;-92
2022/12/05 03:25:45;;;;;;;;;;;;;;;4.10;100.00;101442.66;4951934;29;19910;-91
2022/12/05 03:28:24;;;;;;;;;;;;;;;4.16;100.00;101442.22;4951720;28;19964;-91
2022/12/05 03:30:51;;;;;;;;;;;;;;;4.18;100.00;101447.41;4952011;28;19918;-91
2022/12/05 03:33:18;;;;;;;;;;;;;;;4.21;100.00;101437.50;4952341;29;19922;-92
2022/12/05 03:35:58;;;;;;;;;;;;;;;4.19;100.00;101444.69;4952168;28;19997;-93
2022/12/05 03:38:24;;;;;;;;;;;;;;;4.18;100.00;101432.41;4952582;29;19918;-92
2022/12/05 03:41:01;;;;;;;;;;;;;;;4.30;100.00;101440.44;4936096;29;19993;-91
2022/12/05 03:43:55;;;;;;;;;;;;;;;4.28;100.00;101442.34;4953427;29;19921;-92
2022/12/05 03:46:27;;;;;;;;;;;;;;;4.20;100.00;101438.44;4937664;29;20411;-92
2022/12/05 03:48:56;;;;;;;;;;;;;;;4.22;100.00;101435.69;4953538;29;20279;-91
2022/12/05 03:51:24;;;;;;;;;;;;;;;4.19;100.00;101434.09;4953826;28;19911;-93
2022/12/05 03:53:52;;;;;;;;;;;;;;;4.23;100.00;101435.56;4953633;28;20414;-91
2022/12/05 03:56:37;;;;;;;;;;;;;;;4.29;100.00;101431.69;4951820;28;19922;-92
2022/12/05 03:59:02;;;;;;;;;;;;;;;4.31;100.00;101434.19;4951144;28;19965;-92
2022/12/05 04:01:30;;;;;;;;;;;;;;;4.27;100.00;101438.03;4947253;29;20291;-92
2022/12/05 04:03:58;;;;;;;;;;;;;;;4.34;100.00;101439.28;4935275;28;19918;-91
2022/12/05 04:06:32;;;;;;;;;;;;;;;4.34;100.00;101432.19;4951535;28;19916;-92
2022/12/05 04:09:04;;;;;;;;;;;;;;;4.29;100.00;101428.19;4935126;28;19914;-92
2022/12/05 04:11:33;;;;;;;;;;;;;;;4.33;100.00;101427.00;4934782;29;20695;-91
2022/12/05 04:14:02;;;;;;;;;;;;;;;4.34;100.00;101426.06;4931275;28;19919;-92
2022/12/05 04:19:14;;;;;;;;;;;;;;;4.34;100.00;101432.19;4962578;28;19961;-92
2022/12/05 04:21:43;;;;;;;;;;;;;;;4.30;100.00;101419.31;4963734;28;19962;-91
2022/12/05 04:27:34;;;;;;;;;;;;;;;4.29;100.00;101420.25;4910102;29;19919;-91
2022/12/05 04:30:04;;;;;;;;;;;;;;;4.34;100.00;101428.72;4894906;29;20372;-92
2022/12/05 04:32:35;;;;;;;;;;;;;;;4.35;100.00;101425.94;4905270;29;19923;-91
2022/12/05 04:35:05;;;;;;;;;;;;;;;4.35;100.00;101425.94;4894612;29;19919;-92
2022/12/05 04:37:32;;;;;;;;;;;;;;;4.30;100.00;101417.50;4894720;29;19918;-91
2022/12/05 04:40:00;;;;;;;;;;;;;;;4.37;100.00;101416.13;4894876;29;19950;-91
2022/12/05 04:42:27;;;;;;;;;;;;;;;4.41;100.00;101432.63;4908074;29;19926;-91
2022/12/05 04:44:54;;;;;;;;;;;;;;;4.34;100.00;101420.78;4894932;29;19994;-92
2022/12/05 04:47:23;;;;;;;;;;;;;;;4.31;100.00;101424.50;4895631;29;19919;-92
2022/12/05 04:49:49;;;;;;;;;;;;;;;4.29;100.00;101418.47;4888537;29;19922;-92
2022/12/05 04:52:15;;;;;;;;;;;;;;;4.33;100.00;101419.94;4886443;29;20777;-90
2022/12/05 04:54:42;;;;;;;;;;;;;;;4.25;100.00;101421.41;4901594;29;19922;-90
2022/12/05 04:57:14;;;;;;;;;;;;;;;4.25;100.00;101427.53;4898253;29;20288;-93
2022/12/05 04:59:40;;;;;;;;;;;;;;;4.23;100.00;101419.72;4950193;28;19925;-91
2022/12/05 05:02:09;;;;;;;;;;;;;;;4.27;100.00;101425.66;4931227;28;19915;-91
2022/12/05 05:04:49;;;;;;;;;;;;;;;4.26;100.00;101431.03;4950060;28;19918;-91
2022/12/05 05:07:15;;;;;;;;;;;;;;;4.20;100.00;101430.50;4934564;29;20659;-91
2022/12/05 05:09:40;;;;;;;;;;;;;;;4.29;100.00;101430.84;4950240;28;19938;-91
2022/12/05 05:12:06;;;;;;;;;;;;;;;4.32;100.00;101433.25;4950538;28;19921;-90
2022/12/05 05:14:31;;;;;;;;;;;;;;;4.26;100.00;101436.31;4950303;28;19937;-90
2022/12/05 05:16:57;;;;;;;;;;;;;;;4.25;100.00;101435.47;4934328;29;20001;-91
2022/12/05 05:19:22;;;;;;;;;;;;;;;4.27;100.00;101444.16;4950143;28;19914;-92
2022/12/05 05:21:48;;;;;;;;;;;;;;;4.28;100.00;101442.34;4949975;28;20286;-92
2022/12/05 05:24:14;;;;;;;;;;;;;;;4.23;100.00;101442.66;4950437;28;20080;-90
2022/12/05 05:26:41;;;;;;;;;;;;;;;4.14;100.00;101440.63;4949771;28;19914;-92
2022/12/05 05:29:06;;;;;;;;;;;;;;;4.19;100.00;101434.09;4935793;28;19918;-91
2022/12/05 05:31:32;;;;;;;;;;;;;;;4.22;100.00;101439.19;4953612;28;19970;-92
2022/12/05 05:33:58;;;;;;;;;;;;;;;4.26;100.00;101438.97;4953490;28;19918;-91
2022/12/05 05:36:25;;;;;;;;;;;;;;;4.19;100.00;101431.47;4953376;28;20342;-90
2022/12/05 05:38:55;;;;;;;;;;;;;;;4.22;100.00;101433.88;4945238;29;20282;-92
2022/12/05 05:41:21;;;;;;;;;;;;;;;4.23;100.00;101435.56;4953498;29;20532;-91
2022/12/05 05:43:47;;;;;;;;;;;;;;;4.25;100.00;101435.47;4953494;28;19914;-90
2022/12/05 05:46:13;;;;;;;;;;;;;;;4.23;100.00;101440.84;4937371;29;19943;-91
2022/12/05 05:48:39;;;;;;;;;;;;;;;4.25;100.00;101438.13;4953102;28;19999;-92
2022/12/05 05:51:05;;;;;;;;;;;;;;;4.22;100.00;101436.53;4937560;29;19925;-91
2022/12/05 05:53:30;;;;;;;;;;;;;;;4.19;100.00;101439.41;4937922;28;19915;-91
2022/12/05 05:55:56;;;;;;;;;;;;;;;4.24;100.00;101447.00;4929515;28;19920;-91
2022/12/05 05:58:21;;;;;;;;;;;;;;;4.26;100.00;101444.25;4953364;29;20385;-92
2022/12/05 06:00:46;;;;;;;;;;;;;;;4.17;100.00;101446.56;4936743;29;19925;-91
2022/12/05 06:03:15;;;;;;;;;;;;;;;4.19;100.00;101439.41;4953173;28;19914;-91
2022/12/05 06:05:40;;;;;;;;;;;;;;;4.11;100.00;101436.41;4952936;29;19958;-90
2022/12/05 06:08:05;;;;;;;;;;;;;;;4.14;100.00;101436.19;4953059;28;20016;-91
2022/12/05 06:17:54;;;;;;;;;;;;;;;;;;;;;
2022/12/05 06:20:27;;;;;;;;;;;;;;;4.14;100.00;101443.28;4978359;23;20020;-90
2022/12/05 06:23:18;;;;;;;;;;;;;;;4.11;100.00;101438.22;4972920;28;20672;-91
2022/12/05 06:29:48;;;;;;;;;;;;;;;;;;;;;
2022/12/05 06:32:18;;;;;;;;;;;;;;;4.14;100.00;101425.63;4908663;29;19919;-90
2022/12/05 06:34:58;;;;;;;;;;;;;;;4.17;100.00;101427.25;4897967;29;20006;-91
2022/12/05 06:42:01;;;;;;;;;;;;;;;4.09;100.00;101433.03;4867504;29;19920;-90
2022/12/05 07:02:26;;;;;;;;;;;;;;;4.10;100.00;101424.16;4781513;30;19924;-89
2022/12/05 07:04:52;;;;;;;;;;;;;;;4.01;100.00;101420.34;4768760;30;19918;-89
2022/12/05 07:07:17;;;;;;;;;;;;;;;4.11;100.00;101422.34;4762529;30;19917;-88
2022/12/05 07:09:50;;;;;;;;;;;;;;;4.06;100.00;101417.38;4766242;30;19963;-90
2022/12/05 07:12:16;;;;;;;;;;;;;;;4.05;100.00;101425.41;4766340;30;19925;-88
2022/12/05 07:14:42;;;;;;;;;;;;;;;3.97;100.00;101420.63;4775594;29;19913;-89
2022/12/05 07:17:10;;;;;;;;;;;;;;;4.01;100.00;101425.63;4812173;29;19974;-90
2022/12/05 07:19:37;;;;;;;;;;;;;;;4.04;100.00;101427.22;4817915;29;19927;-90
2022/12/05 07:22:03;;;;;;;;;;;;;;;4.08;100.00;101423.41;4804895;29;19917;-90
2022/12/05 07:24:28;;;;;;;;;;;;;;;3.90;100.00;101422.00;4805471;29;19971;-89
2022/12/05 07:27:02;;;;;;;;;;;;;;;3.96;100.00;101422.44;4820226;29;19916;-89
2022/12/05 07:29:27;;;;;;;;;;;;;;;4.00;100.00;101429.22;4805919;29;19917;-90
2022/12/05 07:31:54;;;;;;;;;;;;;;;4.02;100.00;101431.75;4827291;29;19923;-89
2022/12/05 07:34:19;;;;;;;;;;;;;;;4.12;100.00;101427.53;4841271;29;19927;-91
2022/12/05 07:36:47;;;;;;;;;;;;;;;3.99;100.00;101424.03;4890868;29;19915;-90
2022/12/05 07:39:12;;;;;;;;;;;;;;;3.92;100.00;101426.22;4931902;28;20292;-89
2022/12/05 07:41:38;;;;;;;;;;;;;;;3.67;100.00;101418.25;4939440;28;19914;-89
2022/12/05 07:44:07;;;;;;;;;;;;;;;3.76;100.00;101425.56;4955156;28;20534;-90
2022/12/05 07:46:33;;;;;;;;;;;;;;;3.88;100.00;101434.47;4954776;28;20397;-89
2022/12/05 07:48:58;;;;;;;;;;;;;;;3.75;100.00;101423.88;4939891;28;19914;-90
2022/12/05 07:51:23;;;;;;;;;;;;;;;3.79;100.00;101426.22;4956132;28;19910;-89
2022/12/05 07:53:49;;;;;;;;;;;;;;;3.88;100.00;101427.38;4948996;28;19932;-89
2022/12/05 07:56:16;;;;;;;;;;;;;;;3.98;100.00;101427.59;4956065;28;19945;-86
2022/12/05 07:58:46;;;;;;;;;;;;;;;3.80;100.00;101427.91;4953418;28;19914;-87
2022/12/05 08:01:12;;;;;;;;;;;;;;;3.83;100.00;101428.66;4953892;28;19914;-88
2022/12/05 08:03:38;;;;;;;;;;;;;;;3.89;100.00;101428.25;4938125;28;20278;-88
2022/12/05 08:06:04;;;;;;;;;;;;;;;3.85;100.00;101429.41;4941590;28;19918;-89
2022/12/05 08:08:30;;;;;;;;;;;;;;;3.87;100.00;101427.50;4944202;28;19914;-88
2022/12/05 08:10:55;;;;;;;;;;;;;;;3.97;100.00;101436.50;4955477;29;19921;-87
2022/12/05 08:13:21;;;;;;;;;;;;;;;3.95;100.00;101438.38;4968620;28;20628;-89
2022/12/05 08:15:46;;;;;;;;;;;;;;;3.97;100.00;101439.13;4956052;28;19922;-88
2022/12/05 08:18:11;;;;;;;;;;;;;;;3.95;100.00;101436.59;4954863;28;19917;-87
2022/12/05 08:20:36;;;;;;;;;;;;;;;3.79;100.00;101436.78;4955153;28;20016;-88
2022/12/05 08:23:02;;;;;;;;;;;;;;;3.81;100.00;101434.03;4955551;28;19914;-89
2022/12/05 08:25:27;;;;;;;;;;;;;;;3.73;100.00;101436.34;4954307;28;20378;-89
2022/12/05 08:27:52;;;;;;;;;;;;;;;3.77;100.00;101433.41;4951579;28;19960;-89
2022/12/05 08:30:24;;;;;;;;;;;;;;;3.74;100.00;101436.22;4954342;28;19921;-89
2022/12/05 08:33:14;;;;;;;;;;;;;;;3.72;100.00;101435.50;4954584;28;19922;-89
2022/12/05 08:35:40;;;;;;;;;;;;;;;3.79;100.00;101431.50;4914079;29;19915;-86
2022/12/05 08:38:05;;;;;;;;;;;;;;;3.71;100.00;101430.31;4898325;29;19915;-87
2022/12/05 08:40:30;;;;;;;;;;;;;;;3.77;100.00;101429.91;4914189;29;19914;-87
2022/12/05 08:42:56;;;;;;;;;;;;;;;3.66;100.00;101429.78;4898659;29;19946;-87
2022/12/05 08:45:21;;;;;;;;;;;;;;;3.71;100.00;101427.66;4909029;29;19921;-88
2022/12/05 08:47:47;;;;;;;;;;;;;;;3.60;100.00;101431.00;4929991;29;19910;-88
2022/12/05 08:50:12;;;;;;;;;;;;;;;3.67;100.00;101427.00;4914254;29;19959;-86
2022/12/05 08:52:37;;;;;;;;;;;;;;;3.64;100.00;101432.50;4929571;29;19915;-89
2022/12/05 08:55:03;;;;;;;;;;;;;;;3.56;100.00;101426.91;4896358;29;19967;-87
2022/12/05 08:57:28;;;;;;;;;;;;;;;3.47;100.00;101424.84;4914628;29;19918;-89
2022/12/05 08:59:56;;;;;;;;;;;;;;;3.48;100.00;101419.44;4898543;29;19919;-89
2022/12/05 09:02:21;;;;;;;;;;;;;;;3.64;100.00;101431.66;4914041;29;19953;-89
2022/12/05 09:04:49;;;;;;;;;;;;;;;3.69;100.00;101430.41;4899834;29;19942;-89
2022/12/05 09:08:00;;;;;;;97.68;33.45;;;;;;;3.62;100.00;101423.84;5065832;28;20399;-78
2022/12/05 09:10:26;;;;;;;99.03;32.17;;;;;;;3.63;100.00;101428.19;5054091;28;20656;-78
2022/12/05 09:12:52;;;;;;;108.55;35.65;;;;;;;3.69;100.00;101435.69;5063268;28;20021;-77
2022/12/05 09:15:17;;;;;;;101.13;33.20;;;;;;;3.69;100.00;101424.28;5057864;28;20037;-78
2022/12/05 09:17:44;;;;;;;99.50;35.10;;;;;;;3.62;100.00;101423.00;5061828;28;20020;-78
2022/12/05 09:20:12;;;;;;;96.22;31.63;;;;;;;3.59;100.00;101426.69;5027177;28;20883;-78
2022/12/05 09:22:39;;;;;;;87.68;31.85;;;;;;;3.55;100.00;101425.19;5045289;28;20036;-78
2022/12/05 09:25:05;;;;;;;83.22;29.25;;;;;;;3.51;100.00;101426.31;5052577;28;20024;-78
2022/12/05 09:27:30;;;;;;;87.65;31.05;;;;;;;3.56;100.00;101416.34;5037547;28;20024;-77
2022/12/05 09:29:55;;;;;;;84.70;30.33;;;;;;;3.56;100.00;101416.34;5052639;28;20099;-78
2022/12/05 09:32:21;;;;;;;84.67;31.47;;;;;;;3.63;100.00;101422.03;5051302;28;20031;-77
2022/12/05 09:34:46;;;;;;;80.73;30.80;;;;;;;3.68;100.00;101431.38;5043385;28;20043;-77
2022/12/05 09:37:12;;;;;;;89.60;30.67;;;;;;;3.66;100.00;101429.78;5042764;28;20029;-77
2022/12/05 09:39:37;;;;;;;95.07;33.37;;;;;;;3.63;100.00;101419.38;5049677;28;20071;-79
2022/12/05 09:42:32;;;;;;;95.78;35.67;;;;;;;3.69;100.00;101430.41;5044605;28;20103;-79
2022/12/05 09:45:17;;;;;;;96.23;33.00;;;;;;;3.70;100.00;101434.75;5044997;28;20033;-78
2022/12/05 09:47:58;;;;;;;91.95;31.05;;;;;;;3.73;100.00;101423.13;5042547;28;20124;-76
2022/12/05 09:50:27;;;;;;;102.57;33.35;;;;;;;3.66;100.00;101419.22;5041562;28;20039;-77
2022/12/05 09:53:11;;;;;;;96.22;33.33;;;;;;;3.52;100.00;101425.41;5041531;28;20104;-77
2022/12/05 09:55:43;;;;;;;97.35;37.45;;;;;;;3.56;100.00;101421.63;5041429;28;20029;-77
2022/12/05 09:58:31;;;;;;;104.30;35.33;;;;;;;3.62;100.00;101408.00;5045312;28;20082;-78
2022/12/05 10:01:18;;;;;;;103.63;33.78;;;;;;;3.56;100.00;101411.06;5044214;28;20025;-77
2022/12/05 10:03:52;;;;;;;103.50;39.47;;;;;;;3.70;100.00;101421.56;5024616;28;20061;-78
2022/12/05 10:06:24;;;;;;;116.13;40.15;;;;;;;3.51;100.00;101418.41;5042818;28;20025;-77
2022/12/05 10:09:24;;;;;;;103.45;38.53;;;;;;;3.69;100.00;101411.91;5025492;28;20032;-77
2022/12/05 10:12:18;;;;;;;119.72;39.28;;;;;;;3.73;100.00;101431.91;5051356;28;20052;-76
2022/12/05 10:15:02;;;;;;;113.55;37.30;;;;;;;3.67;100.00;101420.88;5049699;28;20036;-77
2022/12/05 10:17:33;;;;;;;113.93;37.83;;;;;;;3.64;100.00;101418.47;5040189;28;20026;-77
2022/12/05 10:20:02;;;;;;;101.63;35.92;;;;;;;3.68;100.00;101417.31;5036726;28;20109;-77
2022/12/05 10:22:52;;;;;;;115.35;39.15;;;;;;;3.70;100.00;101410.13;5029391;28;20052;-77
2022/12/05 10:25:19;;;;;;;117.60;38.70;;;;;;;3.64;100.00;101419.31;5028119;28;20104;-77
2022/12/05 10:27:51;;;;;;;126.50;38.70;;;;;;;3.54;100.00;101405.03;5036821;28;20024;-76
2022/12/05 10:30:20;;;;;;;117.95;40.10;;;;;;;3.58;100.00;101411.78;5012666;28;20048;-77
2022/12/05 10:32:51;;;;;;;127.97;41.55;;;;;;;3.62;100.00;101415.06;5032941;28;20025;-79
2022/12/05 10:35:19;;;;;;;117.60;38.95;;;;;;;3.70;100.00;101404.84;5042839;28;20095;-78
2022/12/05 10:37:51;;;;;;;130.98;42.58;;;;;;;3.70;100.00;101410.97;5028994;28;20028;-78
2022/12/05 10:40:17;;;;;;;124.15;39.40;;;;;;;3.68;100.00;101401.47;5028931;28;20041;-78
2022/12/05 10:42:44;;;;;;;119.38;40.15;;;;;;;3.66;100.00;101393.63;5029354;28;20026;-77
2022/12/05 10:45:21;;;;;;;125.03;40.78;;;;;;;3.68;100.00;101410.22;5029962;28;20033;-77
2022/12/05 10:47:48;;;;;;;120.70;39.53;;;;;;;3.69;100.00;101406.63;5028463;28;20060;-77
2022/12/05 10:50:22;;;;;;;120.13;38.55;;;;;;;3.68;100.00;101399.66;5028026;28;20104;-76
2022/12/05 10:52:48;;;;;;;123.82;42.55;;;;;;;3.54;100.00;101405.88;5029259;28;20124;-77
2022/12/05 10:55:16;;;;;;;121.78;41.67;;;;;;;3.53;100.00;101396.22;5028902;28;20088;-78
2022/12/05 10:57:49;;;;;;;126.03;42.05;;;;;;;3.59;100.00;101402.91;5027732;28;20025;-77
2022/12/05 11:00:18;;;;;;;123.38;38.60;;;;;;;3.48;100.00;101387.78;5027871;28;20056;-77
2022/12/05 11:02:47;;;;;;;114.50;39.33;;;;;;;3.62;100.00;101389.50;5010120;28;20022;-77
2022/12/05 11:05:12;;;;;;;140.90;42.17;;;;;;;3.55;100.00;101390.84;5030230;28;20029;-78
2022/12/05 11:07:47;;;;;;;126.60;42.63;;;;;;;3.62;100.00;101402.72;5011996;28;20021;-77
2022/12/05 11:10:35;;;;;;;120.65;39.03;;;;;;;3.59;100.00;101376.50;5030131;28;20475;-77
2022/12/05 11:13:12;;;;;;;123.78;41.90;;;;;;;3.65;100.00;101381.38;5022411;28;20037;-77
2022/12/05 11:15:44;;;;;;;128.65;39.03;;;;;;;3.61;100.00;101385.19;5029589;28;20031;-77
2022/12/05 11:18:25;;;;;;;119.10;38.40;;;;;;;3.65;100.00;101383.16;5028392;28;20048;-76
2022/12/05 11:20:51;;;;;;;117.95;40.58;;;;;;;3.61;100.00;101374.63;5028096;28;20662;-78
2022/12/05 11:23:36;;;;;;;118.13;38.85;;;;;;;3.44;100.00;101377.50;5029195;28;20025;-76
2022/12/05 11:26:02;;;;;;;111.43;37.55;;;;;;;3.55;100.00;101380.31;5003252;28;20069;-78
2022/12/05 11:28:32;;;;;;;114.03;37.13;;;;;;;3.56;100.00;101382.00;5027512;28;20049;-78
2022/12/05 11:31:00;;;;;;;119.20;38.45;;;;;;;3.54;100.00;101373.34;5018855;28;20114;-77
2022/12/05 11:33:29;;;;;;;123.50;41.70;;;;;;;3.45;100.00;101374.78;5028831;28;20524;-77
2022/12/05 11:36:00;;;;;;;101.55;36.08;;;;;;;3.42;100.00;101360.94;5029288;28;20027;-78
2022/12/05 11:38:27;;;;;;;95.18;33.75;;;;;;;3.55;100.00;101370.56;5028025;28;20116;-78
2022/12/05 11:41:21;;;;;;;93.03;34.15;;;;;;;3.57;100.00;101368.69;5028281;28;20374;-77
2022/12/05 11:44:10;;;;;;;97.90;35.08;;;;;;;3.53;100.00;101361.06;5028759;28;20486;-78
2022/12/05 11:46:45;;;;;;;104.50;36.25;;;;;;;3.63;100.00;101366.56;5026301;28;20045;-77
2022/12/05 11:49:42;;;;;;;114.97;38.87;;;;;;;3.65;100.00;101365.53;5028420;28;20041;-78
2022/12/05 11:52:42;;;;;;;103.43;34.30;;;;;;;3.63;100.00;101364.81;5028789;28;20494;-78
2022/12/05 11:55:15;;;;;;;103.07;38.60;;;;;;;3.58;100.00;101358.97;5006820;28;20120;-78
2022/12/05 11:58:02;;;;;;;104.30;38.92;;;;;;;3.68;100.00;101354.78;5029030;28;20029;-78
2022/12/05 12:00:54;;;;;;;109.50;39.03;;;;;;;3.64;100.00;101363.84;5028677;28;20079;-78
2022/12/05 12:03:36;;;;;;;112.63;40.70;;;;;;;3.64;100.00;101358.56;5033538;28;20116;-76
2022/12/05 12:06:12;;;;;;;96.43;36.97;;;;;;;3.65;100.00;101357.59;5029985;28;20040;-78
2022/12/05 12:08:52;;;;;;;99.63;35.05;;;;;;;3.58;100.00;101341.34;5027975;28;20042;-77
2022/12/05 12:11:35;;;;;;;103.80;32.50;;;;;;;3.61;100.00;101347.38;5029444;28;20029;-78
2022/12/05 12:14:25;;;;;;;109.80;36.60;;;;;;;3.66;100.00;101348.75;5033811;28;20482;-77
2022/12/05 12:16:50;;;;;;;96.53;32.55;;;;;;;3.59;100.00;101350.09;5029784;28;20033;-79
2022/12/05 12:19:37;;;;;;;78.77;28.53;;;;;;;3.70;100.00;101347.59;5029322;28;20026;-78
2022/12/05 12:22:29;;;;;;;90.65;33.30;;;;;;;3.66;100.00;101346.09;5021471;28;20106;-79
2022/12/05 12:25:07;;;;;;;89.97;29.88;;;;;;;3.63;100.00;101346.31;5029027;28;20065;-77
2022/12/05 12:27:41;;;;;;;83.35;29.73;;;;;;;3.62;100.00;101341.97;5028129;28;20108;-78
2022/12/05 12:30:12;;;;;;;91.07;31.27;;;;;;;3.61;100.00;101337.66;5028582;28;20071;-77
2022/12/05 12:32:44;;;;;;;91.70;32.47;;;;;;;3.56;100.00;101339.75;5031540;28;20471;-78
2022/12/05 12:35:22;;;;;;;78.30;28.98;;;;;;;3.59;100.00;101328.97;5036605;28;20064;-76
2022/12/05 12:38:09;;;;;;;95.80;30.38;;;;;;;3.56;100.00;101330.03;5039288;28;20064;-78
2022/12/05 12:40:46;;;;;;;76.35;28.65;;;;;;;3.53;100.00;101329.38;5030200;28;20041;-75
2022/12/05 12:43:32;;;;;;;94.57;31.30;;;;;;;3.42;100.00;101327.47;5032593;28;20033;-78
2022/12/05 12:46:28;;;;;;;94.13;31.15;;;;;;;3.50;100.00;101325.16;5019827;28;20064;-79
2022/12/05 12:49:09;;;;;;;96.53;32.63;;;;;;;3.54;100.00;101323.16;5030186;28;20041;-78
2022/12/05 12:51:43;;;;;;;83.63;31.98;;;;;;;3.52;100.00;101317.97;5024641;28;20029;-76
2022/12/05 12:54:26;;;;;;;98.97;32.80;;;;;;;3.56;100.00;101323.91;5024827;28;20124;-77
2022/12/05 12:57:19;;;;;;;85.88;31.10;;;;;;;3.64;100.00;101324.22;5026078;28;20398;-77
2022/12/05 13:00:06;;;;;;;93.25;31.70;;;;;;;3.61;100.00;101328.91;5027886;28;20040;-76
2022/12/05 13:02:53;;;;;;;94.38;32.38;;;;;;;3.62;100.00;101330.56;5044337;28;20490;-77
2022/12/05 13:05:42;;;;;;;86.18;32.00;;;;;;;3.54;100.00;101331.09;5038013;28;20074;-76